West Miami, Florida
Current Conditions -  °F | °C
As of 3:53 PM on Saturday 20 Dec 2014 (Local Time) from KMIA Reporting Station
Broken Clouds Broken Clouds  
Wind Chill: 25°   Ceiling: 25000
Heat Index: 26°   Visibility: 10mi
Dew Point: 16°   Wind: 8mph
Humidity: 58%   Direction: 120°ESE
Pressure: 30.04"   Gusts: NA
Location:  25.7365°N, 80.3112°W
Report Text: KMIA 202053Z 12007KT 10SM SCT045 BKN250 25/16 A3004 RMK AO2 SLP172 T02500161 55008
Loading
Personal Weather Stations






























Interactive Weather Map New forecast layout! Learn more

10-Day Weather Forecast

Advertisements
Track Severe Weather on mobile